createdAt,value
2019-01-13T00:01:32.071Z,82.56
2019-01-13T00:04:01.463Z,82.24
2019-01-13T00:06:30.807Z,81.89
2019-01-13T00:09:01.190Z,81.80
2019-01-13T00:11:30.605Z,81.63
2019-01-13T00:14:00.169Z,81.27
2019-01-13T00:16:30.063Z,81.04
2019-01-13T00:19:02.636Z,81.32
2019-01-13T00:21:32.076Z,81.94
2019-01-13T00:24:02.016Z,82.24
2019-01-13T00:26:31.488Z,82.35
2019-01-13T00:29:00.895Z,82.05
2019-01-13T00:31:30.463Z,81.93
2019-01-13T00:34:00.116Z,81.65
2019-01-13T00:36:29.557Z,81.59
2019-01-13T00:38:59.017Z,81.79
2019-01-13T00:41:28.474Z,81.96
2019-01-13T00:43:58.145Z,81.77
2019-01-13T00:46:27.581Z,81.40
2019-01-13T00:48:57.028Z,81.88
2019-01-13T00:51:26.452Z,82.51
2019-01-13T00:53:55.930Z,82.41
2019-01-13T00:56:25.383Z,83.02
2019-01-13T00:58:54.830Z,83.16
2019-01-13T01:01:24.380Z,83.26
2019-01-13T01:03:53.900Z,83.24
2019-01-13T01:06:23.442Z,83.32
2019-01-13T01:08:53.020Z,83.22
2019-01-13T01:11:22.501Z,83.32
2019-01-13T01:13:51.906Z,82.96
2019-01-13T01:16:21.925Z,82.63
2019-01-13T01:18:51.459Z,82.33
2019-01-13T01:21:20.871Z,82.07
2019-01-13T01:23:50.459Z,82.08
2019-01-13T01:26:19.897Z,81.88
2019-01-13T01:28:49.343Z,81.45
2019-01-13T01:31:21.667Z,81.23
2019-01-13T01:33:51.233Z,81.60
2019-01-13T01:36:20.650Z,81.55
2019-01-13T01:38:50.097Z,80.94
2019-01-13T01:41:19.547Z,81.25
2019-01-13T01:43:49.283Z,81.45
2019-01-13T01:46:18.785Z,80.65
2019-01-13T01:48:48.315Z,80.58
2019-01-13T01:51:17.735Z,80.32
2019-01-13T01:53:47.269Z,80.78
2019-01-13T01:56:16.679Z,80.36
2019-01-13T01:58:46.078Z,79.93
2019-01-13T02:01:15.667Z,79.83
2019-01-13T02:03:45.121Z,80.24
2019-01-13T02:06:14.617Z,80.19
2019-01-13T02:08:44.125Z,79.84
2019-01-13T02:11:13.734Z,80.33
2019-01-13T02:13:43.138Z,80.74
2019-01-13T02:16:12.803Z,81.49
2019-01-13T02:18:42.235Z,81.74
2019-01-13T02:21:12.849Z,82.05
2019-01-13T02:23:42.468Z,82.75
2019-01-13T02:26:11.920Z,83.01
2019-01-13T02:28:41.380Z,82.61
2019-01-13T02:31:10.922Z,82.75
2019-01-13T02:33:40.339Z,82.90
2019-01-13T02:36:09.836Z,82.36
2019-01-13T02:38:39.382Z,82.47
2019-01-13T02:41:08.835Z,82.29
2019-01-13T02:43:38.259Z,82.15
2019-01-13T02:46:07.773Z,81.72
2019-01-13T02:48:37.182Z,81.91
2019-01-13T02:51:06.343Z,81.63
2019-01-13T02:53:36.922Z,81.72
2019-01-13T02:56:06.806Z,81.84
2019-01-13T02:58:36.740Z,81.96
2019-01-13T03:01:06.774Z,81.46
2019-01-13T03:03:36.753Z,81.26
2019-01-13T03:06:06.885Z,81.00
2019-01-13T03:08:36.903Z,81.35
2019-01-13T03:11:06.746Z,81.12
2019-01-13T03:13:36.788Z,81.71
2019-01-13T03:16:06.920Z,82.37
2019-01-13T03:18:36.787Z,82.77
2019-01-13T03:21:06.747Z,83.21
2019-01-13T03:23:39.418Z,83.16
2019-01-13T03:26:10.286Z,83.38
2019-01-13T03:28:39.675Z,83.47
2019-01-13T03:31:12.105Z,83.30
2019-01-13T03:33:40.620Z,83.37
2019-01-13T03:36:10.279Z,83.19
2019-01-13T03:38:39.795Z,82.60
2019-01-13T03:41:09.303Z,82.69
2019-01-13T03:43:38.729Z,82.91
2019-01-13T03:46:08.206Z,82.78
2019-01-13T03:48:37.597Z,82.68
2019-01-13T03:51:06.996Z,82.46
2019-01-13T03:53:36.911Z,82.22
2019-01-13T03:56:06.923Z,82.56
2019-01-13T03:58:36.846Z,82.90
2019-01-13T04:01:06.960Z,82.38
2019-01-13T04:03:36.897Z,82.14
2019-01-13T04:06:07.037Z,81.88
2019-01-13T04:08:37.042Z,82.01
2019-01-13T04:11:06.838Z,81.46
2019-01-13T04:13:36.942Z,82.06
2019-01-13T04:16:06.973Z,81.89
2019-01-13T04:18:36.907Z,82.40
2019-01-13T04:21:06.848Z,82.22
2019-01-13T04:23:37.555Z,82.76
2019-01-13T04:26:06.984Z,83.09
2019-01-13T04:28:36.896Z,83.22
2019-01-13T04:31:07.157Z,82.99
2019-01-13T04:33:36.906Z,83.30
2019-01-13T04:36:06.904Z,82.91
2019-01-13T04:38:37.077Z,83.21
2019-01-13T04:41:07.004Z,83.26
2019-01-13T04:43:37.005Z,83.76
2019-01-13T04:46:07.126Z,83.58
2019-01-13T04:48:36.901Z,83.48
2019-01-13T04:51:06.966Z,83.55
2019-01-13T04:53:37.077Z,83.33
2019-01-13T04:56:06.943Z,83.59
2019-01-13T04:58:36.938Z,83.72
2019-01-13T05:01:07.055Z,83.80
2019-01-13T05:03:36.970Z,84.39
2019-01-13T05:06:06.967Z,84.27
2019-01-13T05:08:37.005Z,84.88
2019-01-13T05:11:06.966Z,84.76
2019-01-13T05:13:36.981Z,84.88
2019-01-13T05:16:07.167Z,84.77
2019-01-13T05:18:37.090Z,84.86
2019-01-13T05:21:07.038Z,85.11
2019-01-13T05:23:37.057Z,85.23
2019-01-13T05:26:06.972Z,85.17
2019-01-13T05:28:37.037Z,85.47
2019-01-13T05:31:07.289Z,85.26
2019-01-13T05:33:38.722Z,84.61
2019-01-13T05:36:08.414Z,85.46
2019-01-13T05:38:37.868Z,85.46
2019-01-13T05:41:07.301Z,85.33
2019-01-13T05:43:37.029Z,85.13
2019-01-13T05:46:07.281Z,85.30
2019-01-13T05:48:37.083Z,84.66
2019-01-13T05:51:07.039Z,84.58
2019-01-13T05:53:37.168Z,83.98
2019-01-13T05:56:07.032Z,84.14
2019-01-13T05:58:37.074Z,83.97
2019-01-13T06:01:07.149Z,84.01
2019-01-13T06:03:37.077Z,84.34
2019-01-13T06:06:07.112Z,83.99
2019-01-13T06:08:37.189Z,84.09
2019-01-13T06:11:07.107Z,83.69
2019-01-13T06:13:37.095Z,83.67
2019-01-13T06:16:07.318Z,83.05
2019-01-13T06:18:37.145Z,83.10
2019-01-13T06:21:07.091Z,83.15
2019-01-13T06:23:37.140Z,83.57
2019-01-13T06:26:07.105Z,83.31
2019-01-13T06:28:36.578Z,83.04
2019-01-13T06:31:06.164Z,83.80
2019-01-13T06:33:35.551Z,83.43
2019-01-13T06:36:06.649Z,83.44
2019-01-13T06:38:36.148Z,83.43
2019-01-13T06:41:05.653Z,84.03
2019-01-13T06:43:35.052Z,83.85
2019-01-13T06:46:04.506Z,84.17
2019-01-13T06:48:33.913Z,84.60
2019-01-13T06:51:03.311Z,84.47
2019-01-13T06:53:32.888Z,84.35
2019-01-13T06:56:02.247Z,84.47
2019-01-13T06:58:31.725Z,84.53
2019-01-13T07:01:01.248Z,83.90
2019-01-13T07:03:30.639Z,83.69
2019-01-13T07:06:00.075Z,84.83
2019-01-13T07:08:29.678Z,85.34
2019-01-13T07:10:59.120Z,85.11
2019-01-13T07:13:28.542Z,85.01
2019-01-13T07:15:58.278Z,84.84
2019-01-13T07:18:27.671Z,84.75
2019-01-13T07:20:57.149Z,85.58
2019-01-13T07:23:29.174Z,85.26
2019-01-13T07:25:58.575Z,85.62
2019-01-13T07:28:27.944Z,85.31
2019-01-13T07:30:57.486Z,84.91
2019-01-13T07:33:26.929Z,85.22
2019-01-13T07:35:56.328Z,85.05
2019-01-13T07:38:25.894Z,85.05
2019-01-13T07:40:55.265Z,86.08
2019-01-13T07:43:24.660Z,85.74
2019-01-13T07:45:54.215Z,85.33
2019-01-13T07:48:23.590Z,86.08
2019-01-13T07:50:53.074Z,86.63
2019-01-13T07:53:22.584Z,86.43
2019-01-13T07:55:51.987Z,86.86
2019-01-13T07:58:21.350Z,86.72
2019-01-13T08:00:50.939Z,86.22
2019-01-13T08:03:20.600Z,86.46
2019-01-13T08:05:50.239Z,86.26
2019-01-13T08:08:19.680Z,86.65
2019-01-13T08:10:49.393Z,86.50
2019-01-13T08:13:18.828Z,86.50
2019-01-13T08:15:48.482Z,86.61
2019-01-13T08:18:17.886Z,86.58
2019-01-13T08:20:47.656Z,87.00
2019-01-13T08:23:17.369Z,86.84
2019-01-13T08:25:46.793Z,87.11
2019-01-13T08:28:16.327Z,86.95
2019-01-13T08:30:45.870Z,87.27
2019-01-13T08:33:15.335Z,87.72
2019-01-13T08:35:44.788Z,87.73
2019-01-13T08:38:14.369Z,88.23
2019-01-13T08:40:43.755Z,88.39
2019-01-13T08:43:13.175Z,89.01
2019-01-13T08:45:42.681Z,89.32
2019-01-13T08:48:12.042Z,89.28
2019-01-13T08:50:41.427Z,89.37
2019-01-13T08:53:10.997Z,89.41
2019-01-13T08:55:40.373Z,89.36
2019-01-13T08:58:09.956Z,89.44
2019-01-13T09:00:39.672Z,89.77
2019-01-13T09:03:09.685Z,89.99
2019-01-13T09:05:39.328Z,90.07
2019-01-13T09:08:09.292Z,90.04
2019-01-13T09:10:38.795Z,89.81
2019-01-13T09:13:08.218Z,89.69
2019-01-13T09:15:38.262Z,89.96
2019-01-13T09:18:07.837Z,90.35
2019-01-13T09:20:37.520Z,89.98
2019-01-13T09:23:07.551Z,89.21
2019-01-13T09:25:38.343Z,89.15
2019-01-13T09:28:08.807Z,89.22
2019-01-13T09:30:38.247Z,89.45
2019-01-13T09:33:07.836Z,89.29
2019-01-13T09:35:37.529Z,89.13
2019-01-13T09:38:07.720Z,89.64
2019-01-13T09:40:37.558Z,89.30
2019-01-13T09:43:07.590Z,89.39
2019-01-13T09:45:37.685Z,89.99
2019-01-13T09:48:07.482Z,89.99
2019-01-13T09:50:37.529Z,90.01
2019-01-13T09:53:07.649Z,90.03
2019-01-13T09:55:37.512Z,89.92
2019-01-13T09:58:07.520Z,89.67
2019-01-13T10:00:38.622Z,90.22
2019-01-13T10:03:09.185Z,90.36
2019-01-13T10:05:39.795Z,90.38
2019-01-13T10:08:09.673Z,89.67
2019-01-13T10:10:39.230Z,89.17
2019-01-13T10:13:08.601Z,89.03
2019-01-13T10:15:38.239Z,89.26
2019-01-13T10:18:07.975Z,88.95
2019-01-13T10:20:37.673Z,88.84
2019-01-13T10:23:07.704Z,88.08
2019-01-13T10:25:37.585Z,87.96
2019-01-13T10:28:07.735Z,87.77
2019-01-13T10:30:37.724Z,87.58
2019-01-13T10:33:07.563Z,87.45
2019-01-13T10:35:37.598Z,87.35
2019-01-13T10:38:07.823Z,87.91
2019-01-13T10:40:37.584Z,88.32
2019-01-13T10:43:07.595Z,88.44
2019-01-13T10:45:37.771Z,88.62
2019-01-13T10:48:07.631Z,88.63
2019-01-13T10:50:37.648Z,89.29
2019-01-13T10:53:08.851Z,89.04
2019-01-13T10:55:38.308Z,88.89
2019-01-13T10:58:07.966Z,89.57
2019-01-13T11:00:38.519Z,89.05
2019-01-13T11:03:08.058Z,88.51
2019-01-13T11:05:37.777Z,88.66
2019-01-13T11:08:11.757Z,88.86
2019-01-13T11:10:39.254Z,88.55
2019-01-13T11:13:08.659Z,89.01
2019-01-13T11:15:38.179Z,88.76
2019-01-13T11:18:07.875Z,88.98
2019-01-13T11:20:39.331Z,88.72
2019-01-13T11:23:09.099Z,89.05
2019-01-13T11:25:38.486Z,89.50
2019-01-13T11:28:08.046Z,89.21
2019-01-13T11:30:37.714Z,89.53
2019-01-13T11:33:09.643Z,89.10
2019-01-13T11:35:38.843Z,88.85
2019-01-13T11:38:09.043Z,88.54
2019-01-13T11:40:38.422Z,88.36
2019-01-13T11:43:07.860Z,88.34
2019-01-13T11:45:37.849Z,88.19
2019-01-13T11:48:07.891Z,88.30
2019-01-13T11:50:37.774Z,88.45
2019-01-13T11:53:07.891Z,88.51
2019-01-13T11:55:37.767Z,88.51
2019-01-13T11:58:07.783Z,88.78
2019-01-13T12:00:45.699Z,89.35
2019-01-13T12:03:17.143Z,89.30
2019-01-13T12:05:46.208Z,88.89
2019-01-13T12:08:15.655Z,88.33
2019-01-13T12:10:45.067Z,88.42
2019-01-13T12:13:14.747Z,88.06
2019-01-13T12:15:44.198Z,88.21
2019-01-13T12:18:13.622Z,87.95
2019-01-13T12:20:43.003Z,88.24
2019-01-13T12:23:12.521Z,88.13
2019-01-13T12:25:42.328Z,88.03
2019-01-13T12:28:11.772Z,88.88
2019-01-13T12:30:41.356Z,88.91
2019-01-13T12:33:10.748Z,88.99
2019-01-13T12:35:40.142Z,88.51
2019-01-13T12:38:09.732Z,88.52
2019-01-13T12:40:39.134Z,88.21
2019-01-13T12:43:08.537Z,87.79
2019-01-13T12:45:38.134Z,88.07
2019-01-13T12:48:08.049Z,87.90
2019-01-13T12:50:37.868Z,87.13
2019-01-13T12:53:07.969Z,87.42
2019-01-13T12:55:37.874Z,87.69
2019-01-13T12:58:07.847Z,87.51
2019-01-13T13:00:37.989Z,87.22
2019-01-13T13:03:07.829Z,87.10
2019-01-13T13:05:37.877Z,87.29
2019-01-13T13:08:08.225Z,86.91
2019-01-13T13:10:45.917Z,87.02
2019-01-13T13:13:15.587Z,87.18
2019-01-13T13:15:45.143Z,86.97
2019-01-13T13:18:14.548Z,86.74
2019-01-13T13:20:43.978Z,86.84
2019-01-13T13:23:13.555Z,86.69
2019-01-13T13:25:42.962Z,86.20
2019-01-13T13:28:12.533Z,85.77
2019-01-13T13:30:42.118Z,85.11
2019-01-13T13:33:11.557Z,85.11
2019-01-13T13:35:40.931Z,84.94
2019-01-13T13:38:10.546Z,84.21
2019-01-13T13:40:39.987Z,83.81
2019-01-13T13:43:09.372Z,84.02
2019-01-13T13:45:38.832Z,83.87
2019-01-13T13:48:08.237Z,83.05
2019-01-13T13:50:37.908Z,82.87
2019-01-13T13:53:08.195Z,82.64
2019-01-13T13:55:38.001Z,82.41
2019-01-13T13:58:07.943Z,82.49
2019-01-13T14:00:39.076Z,82.08
2019-01-13T14:03:08.514Z,82.33
2019-01-13T14:05:38.120Z,81.98
2019-01-13T14:08:08.606Z,82.18
2019-01-13T14:10:42.566Z,82.51
2019-01-13T14:13:12.002Z,82.45
2019-01-13T14:15:41.446Z,82.56
2019-01-13T14:18:10.887Z,82.37
2019-01-13T14:20:40.255Z,82.29
2019-01-13T14:23:09.924Z,82.89
2019-01-13T14:25:39.359Z,82.90
2019-01-13T14:28:09.313Z,83.34
2019-01-13T14:30:38.936Z,83.71
2019-01-13T14:33:08.279Z,84.00
2019-01-13T14:35:37.968Z,83.87
2019-01-13T14:38:08.174Z,83.65
2019-01-13T14:40:38.046Z,83.01
2019-01-13T14:43:08.010Z,82.49
2019-01-13T14:45:59.057Z,82.75
2019-01-13T14:48:34.770Z,82.70
2019-01-13T14:51:04.193Z,83.36
2019-01-13T14:53:40.522Z,83.75
2019-01-13T14:56:10.074Z,84.12
2019-01-13T14:58:39.476Z,85.52
2019-01-13T15:05:00.951Z,86.45
2019-01-13T15:07:30.427Z,86.60
2019-01-13T15:09:59.918Z,86.83
2019-01-13T15:12:35.829Z,86.37
2019-01-13T15:15:06.168Z,85.87
2019-01-13T15:17:35.589Z,85.39
2019-01-13T15:20:12.407Z,84.83
2019-01-13T15:25:13.258Z,84.40
2019-01-13T15:27:42.788Z,83.68
2019-01-13T15:30:16.124Z,83.50
2019-01-13T15:32:45.611Z,83.24
2019-01-13T15:35:15.160Z,82.79
2019-01-13T15:37:44.641Z,82.85
2019-01-13T15:40:15.846Z,82.72
2019-01-13T15:43:04.853Z,82.51
2019-01-13T15:45:34.621Z,82.23
2019-01-13T15:48:04.265Z,82.29
2019-01-13T15:50:33.835Z,82.07
2019-01-13T15:53:03.288Z,82.51
2019-01-13T15:55:32.682Z,81.90
2019-01-13T15:58:02.253Z,81.08
2019-01-13T16:00:33.962Z,80.63
2019-01-13T16:03:03.327Z,78.85
2019-01-13T16:05:32.964Z,79.10
2019-01-13T16:08:02.365Z,78.57
2019-01-13T16:10:31.764Z,77.99
2019-01-13T16:13:01.480Z,77.87
2019-01-13T16:15:34.395Z,77.73
2019-01-13T16:18:01.991Z,77.59
2019-01-13T16:20:41.774Z,77.74
2019-01-13T16:23:11.358Z,77.47
2019-01-13T16:25:40.742Z,77.55
2019-01-13T16:28:10.492Z,77.39
2019-01-13T16:30:39.950Z,77.37
2019-01-13T16:33:09.355Z,77.12
2019-01-13T16:35:45.807Z,77.16
2019-01-13T16:38:15.189Z,77.25
2019-01-13T16:40:44.559Z,77.59
2019-01-13T16:43:24.416Z,77.67
2019-01-13T16:46:00.219Z,78.39
2019-01-13T16:48:42.513Z,78.21
2019-01-13T16:51:11.960Z,78.17
2019-01-13T16:53:41.338Z,78.12
2019-01-13T16:56:11.144Z,78.21
2019-01-13T16:58:40.532Z,78.23
2019-01-13T17:01:09.957Z,78.58
2019-01-13T17:03:39.563Z,78.33
2019-01-13T17:06:08.963Z,78.06
2019-01-13T17:08:38.347Z,77.23
2019-01-13T17:11:07.858Z,77.46
2019-01-13T17:13:37.259Z,76.55
2019-01-13T17:16:06.665Z,76.19
2019-01-13T17:18:36.190Z,75.76
2019-01-13T17:21:05.593Z,75.85
2019-01-13T17:23:34.991Z,75.52
2019-01-13T17:26:04.465Z,75.30
2019-01-13T17:28:33.855Z,75.00
2019-01-13T17:31:03.292Z,75.23
2019-01-13T17:33:32.810Z,74.94
2019-01-13T17:36:02.197Z,75.21
2019-01-13T17:38:31.578Z,74.87
2019-01-13T17:41:01.097Z,75.26
2019-01-13T17:43:30.486Z,75.25
2019-01-13T17:45:59.844Z,75.26
2019-01-13T17:48:29.400Z,75.09
2019-01-13T17:50:58.943Z,74.75
2019-01-13T17:53:28.654Z,75.24
2019-01-13T17:55:58.226Z,75.16
2019-01-13T17:58:27.650Z,74.84
2019-01-13T18:01:05.882Z,74.73
2019-01-13T18:03:44.224Z,74.65
2019-01-13T18:06:13.661Z,74.55
2019-01-13T18:08:43.090Z,74.18
2019-01-13T18:11:12.655Z,74.06
2019-01-13T18:13:42.024Z,73.76
2019-01-13T18:16:11.414Z,73.99
2019-01-13T18:18:40.816Z,73.71
2019-01-13T18:21:10.205Z,73.90
2019-01-13T18:23:39.583Z,74.06
2019-01-13T18:26:09.112Z,74.11
2019-01-13T18:28:38.482Z,74.00
2019-01-13T18:31:07.870Z,74.02
2019-01-13T18:33:37.299Z,74.04
2019-01-13T18:36:06.719Z,74.37
2019-01-13T18:38:36.092Z,75.29
2019-01-13T18:41:05.837Z,75.77
2019-01-13T18:43:35.213Z,76.39
2019-01-13T18:46:04.590Z,76.20
2019-01-13T18:48:34.040Z,76.09
2019-01-13T18:51:03.428Z,75.79
2019-01-13T18:53:32.806Z,75.07
2019-01-13T18:56:02.330Z,75.19
2019-01-13T18:58:32.067Z,74.59
2019-01-13T19:01:01.444Z,73.99
2019-01-13T19:03:31.021Z,74.16
2019-01-13T19:06:00.412Z,73.77
2019-01-13T19:08:29.839Z,73.93
2019-01-13T19:11:26.331Z,73.53
2019-01-13T19:14:17.320Z,73.90
2019-01-13T19:17:00.340Z,73.83
2019-01-13T19:19:35.476Z,74.52
2019-01-13T19:22:04.834Z,74.10
2019-01-13T19:24:34.354Z,74.03
2019-01-13T19:27:03.732Z,73.04
2019-01-13T19:29:33.148Z,73.32
2019-01-13T19:32:02.731Z,73.96
2019-01-13T19:34:32.157Z,74.72
2019-01-13T19:37:01.586Z,74.95
2019-01-13T19:39:31.056Z,74.98
2019-01-13T19:42:00.468Z,75.21
2019-01-13T19:44:29.851Z,75.59
2019-01-13T19:46:59.301Z,75.37
2019-01-13T19:49:28.693Z,75.00
2019-01-13T19:51:58.070Z,75.13
2019-01-13T19:54:27.942Z,74.80
2019-01-13T19:56:57.692Z,74.73
2019-01-13T19:59:27.690Z,74.31
2019-01-13T20:01:58.007Z,74.54
2019-01-13T20:04:27.651Z,74.54
2019-01-13T20:06:57.704Z,74.82
2019-01-13T20:09:27.813Z,74.40
2019-01-13T20:11:57.758Z,74.03
2019-01-13T20:14:27.704Z,74.37
2019-01-13T20:16:57.754Z,74.08
2019-01-13T20:19:27.701Z,74.03
2019-01-13T20:21:57.673Z,73.90
2019-01-13T20:24:27.901Z,73.63
2019-01-13T20:26:57.761Z,71.69
2019-01-13T20:29:27.746Z,70.95
2019-01-13T20:31:57.955Z,70.39
2019-01-13T20:34:27.756Z,69.62
2019-01-13T20:36:57.681Z,69.79
2019-01-13T20:39:27.821Z,69.92
2019-01-13T20:41:57.748Z,69.82
2019-01-13T20:44:27.802Z,70.68
2019-01-13T20:46:57.912Z,70.62
2019-01-13T20:49:27.780Z,70.95
2019-01-13T20:51:57.895Z,70.83
2019-01-13T20:54:27.960Z,70.40
2019-01-13T20:56:57.742Z,69.94
2019-01-13T20:59:27.733Z,70.00
2019-01-13T21:01:57.900Z,69.51
2019-01-13T21:04:27.780Z,69.46
2019-01-13T21:06:57.987Z,70.07
2019-01-13T21:09:27.930Z,69.46
2019-01-13T21:11:58.106Z,69.14
2019-01-13T21:14:27.824Z,69.22
2019-01-13T21:16:57.852Z,68.76
2019-01-13T21:19:27.811Z,68.07
2019-01-13T21:21:57.830Z,67.23
2019-01-13T21:24:27.978Z,66.80
2019-01-13T21:26:57.811Z,66.12
2019-01-13T21:29:27.804Z,65.24
2019-01-13T21:31:57.863Z,65.02
2019-01-13T21:34:27.857Z,64.62
2019-01-13T21:36:57.868Z,64.24
2019-01-13T21:39:27.996Z,64.24
2019-01-13T21:41:57.877Z,64.23
2019-01-13T21:44:27.891Z,64.16
2019-01-13T21:46:57.987Z,64.02
2019-01-13T21:49:27.864Z,63.73
2019-01-13T21:51:57.872Z,63.58
2019-01-13T21:54:27.959Z,63.01
2019-01-13T21:56:58.012Z,62.88
2019-01-13T21:59:27.899Z,62.68
2019-01-13T22:01:58.003Z,62.84
2019-01-13T22:04:27.894Z,63.43
2019-01-13T22:06:57.908Z,63.22
2019-01-13T22:09:28.281Z,62.57
2019-01-13T22:11:57.934Z,61.87
2019-01-13T22:14:27.912Z,61.95
2019-01-13T22:16:58.034Z,61.48
2019-01-13T22:19:27.921Z,60.60
2019-01-13T22:21:57.904Z,60.20
2019-01-13T22:24:28.144Z,59.93
2019-01-13T22:26:57.916Z,60.48
2019-01-13T22:29:27.992Z,60.30
2019-01-13T22:31:58.092Z,60.39
2019-01-13T22:34:27.913Z,61.12
2019-01-13T22:36:57.945Z,61.12
2019-01-13T22:39:28.079Z,60.24
2019-01-13T22:41:57.937Z,60.54
2019-01-13T22:44:28.078Z,60.71
2019-01-13T22:46:58.114Z,60.50
2019-01-13T22:49:28.005Z,60.28
2019-01-13T22:51:57.971Z,59.42
2019-01-13T22:54:28.029Z,59.59
2019-01-13T22:56:58.016Z,58.37
2019-01-13T22:59:27.961Z,58.63
2019-01-13T23:01:58.101Z,58.63
2019-01-13T23:04:27.965Z,58.50
2019-01-13T23:09:33.248Z,58.89
2019-01-13T23:12:02.985Z,58.58
2019-01-13T23:14:32.390Z,58.13
2019-01-13T23:17:01.922Z,58.15
2019-01-13T23:19:31.358Z,58.06
2019-01-13T23:22:00.739Z,58.10
2019-01-13T23:24:30.357Z,58.39
2019-01-13T23:26:59.719Z,57.88
2019-01-13T23:29:29.100Z,58.52
2019-01-13T23:31:58.585Z,58.50
2019-01-13T23:34:28.862Z,58.95
2019-01-13T23:36:58.409Z,58.43
2019-01-13T23:39:28.575Z,58.42
2019-01-13T23:41:58.414Z,58.23
2019-01-13T23:44:28.404Z,58.23
2019-01-13T23:46:58.788Z,58.82
2019-01-13T23:49:28.792Z,58.47
2019-01-13T23:51:58.458Z,58.71
2019-01-13T23:54:28.554Z,58.56
2019-01-13T23:56:58.396Z,58.86
2019-01-13T23:59:28.451Z,58.97
